sensor_id;sensor_type;location;lat;lon;timestamp;P1;durP1;ratioP1;P2;durP2;ratioP2
14092;SDS011;7123;49.468;10.992;2024-02-15T00:02:24;5.47;;;4.97;;
14092;SDS011;7123;49.468;10.992;2024-02-15T00:04:51;7.07;;;5.70;;
14092;SDS011;7123;49.468;10.992;2024-02-15T00:07:18;7.10;;;5.50;;
14092;SDS011;7123;49.468;10.992;2024-02-15T00:09:48;8.53;;;5.33;;
14092;SDS011;7123;49.468;10.992;2024-02-15T00:12:15;5.87;;;5.27;;
14092;SDS011;7123;49.468;10.992;2024-02-15T00:14:42;6.00;;;5.23;;
14092;SDS011;7123;49.468;10.992;2024-02-15T00:17:09;6.20;;;5.60;;
14092;SDS011;7123;49.468;10.992;2024-02-15T00:19:37;6.33;;;4.80;;
14092;SDS011;7123;49.468;10.992;2024-02-15T00:22:08;6.10;;;5.37;;
14092;SDS011;7123;49.468;10.992;2024-02-15T00:24:38;5.97;;;4.90;;
14092;SDS011;7123;49.468;10.992;2024-02-15T00:27:08;6.70;;;5.03;;
14092;SDS011;7123;49.468;10.992;2024-02-15T00:29:35;6.90;;;5.17;;
14092;SDS011;7123;49.468;10.992;2024-02-15T00:32:02;6.87;;;4.70;;
14092;SDS011;7123;49.468;10.992;2024-02-15T00:34:30;6.13;;;5.20;;
14092;SDS011;7123;49.468;10.992;2024-02-15T00:36:57;5.13;;;4.63;;
14092;SDS011;7123;49.468;10.992;2024-02-15T00:39:24;5.83;;;5.27;;
14092;SDS011;7123;49.468;10.992;2024-02-15T00:41:51;8.07;;;5.37;;
14092;SDS011;7123;49.468;10.992;2024-02-15T00:44:18;5.73;;;4.80;;
14092;SDS011;7123;49.468;10.992;2024-02-15T00:46:44;6.47;;;4.73;;
14092;SDS011;7123;49.468;10.992;2024-02-15T00:49:12;5.67;;;5.07;;
14092;SDS011;7123;49.468;10.992;2024-02-15T00:51:39;4.97;;;4.50;;
14092;SDS011;7123;49.468;10.992;2024-02-15T00:54:06;6.27;;;5.07;;
14092;SDS011;7123;49.468;10.992;2024-02-15T00:56:33;4.77;;;4.37;;
14092;SDS011;7123;49.468;10.992;2024-02-15T00:59:00;4.70;;;4.30;;
14092;SDS011;7123;49.468;10.992;2024-02-15T01:01:31;6.47;;;4.67;;
14092;SDS011;7123;49.468;10.992;2024-02-15T01:03:58;6.33;;;4.63;;
14092;SDS011;7123;49.468;10.992;2024-02-15T01:06:25;5.30;;;4.40;;
14092;SDS011;7123;49.468;10.992;2024-02-15T01:08:52;6.13;;;4.73;;
14092;SDS011;7123;49.468;10.992;2024-02-15T01:11:18;5.80;;;4.90;;
14092;SDS011;7123;49.468;10.992;2024-02-15T01:13:45;5.47;;;4.97;;
14092;SDS011;7123;49.468;10.992;2024-02-15T01:16:12;6.10;;;5.50;;
14092;SDS011;7123;49.468;10.992;2024-02-15T01:18:39;7.23;;;4.73;;
14092;SDS011;7123;49.468;10.992;2024-02-15T01:21:06;5.73;;;5.10;;
14092;SDS011;7123;49.468;10.992;2024-02-15T01:23:33;6.67;;;5.00;;
14092;SDS011;7123;49.468;10.992;2024-02-15T01:26:03;5.27;;;4.77;;
14092;SDS011;7123;49.468;10.992;2024-02-15T01:28:31;6.40;;;5.00;;
14092;SDS011;7123;49.468;10.992;2024-02-15T01:30:58;4.93;;;4.43;;
14092;SDS011;7123;49.468;10.992;2024-02-15T01:33:25;5.77;;;4.73;;
14092;SDS011;7123;49.468;10.992;2024-02-15T01:35:53;6.53;;;4.63;;
14092;SDS011;7123;49.468;10.992;2024-02-15T01:38:19;6.00;;;4.93;;
14092;SDS011;7123;49.468;10.992;2024-02-15T01:40:46;4.50;;;4.10;;
14092;SDS011;7123;49.468;10.992;2024-02-15T01:43:14;5.23;;;4.13;;
14092;SDS011;7123;49.468;10.992;2024-02-15T01:45:41;6.67;;;4.00;;
14092;SDS011;7123;49.468;10.992;2024-02-15T01:48:09;4.90;;;4.37;;
14092;SDS011;7123;49.468;10.992;2024-02-15T01:50:37;7.00;;;4.30;;
14092;SDS011;7123;49.468;10.992;2024-02-15T01:53:04;4.87;;;4.17;;
14092;SDS011;7123;49.468;10.992;2024-02-15T01:55:34;4.87;;;4.40;;
14092;SDS011;7123;49.468;10.992;2024-02-15T01:58:02;4.27;;;3.87;;
14092;SDS011;7123;49.468;10.992;2024-02-15T02:00:30;4.47;;;4.07;;
14092;SDS011;7123;49.468;10.992;2024-02-15T02:02:57;4.57;;;4.17;;
14092;SDS011;7123;49.468;10.992;2024-02-15T02:05:26;4.37;;;3.97;;
14092;SDS011;7123;49.468;10.992;2024-02-15T02:07:54;4.10;;;3.80;;
14092;SDS011;7123;49.468;10.992;2024-02-15T02:10:25;5.47;;;3.90;;
14092;SDS011;7123;49.468;10.992;2024-02-15T02:12:53;4.97;;;4.33;;
14092;SDS011;7123;49.468;10.992;2024-02-15T02:15:20;4.33;;;3.93;;
14092;SDS011;7123;49.468;10.992;2024-02-15T02:17:50;3.80;;;3.50;;
14092;SDS011;7123;49.468;10.992;2024-02-15T02:20:19;4.17;;;3.83;;
14092;SDS011;7123;49.468;10.992;2024-02-15T02:22:47;4.73;;;4.20;;
14092;SDS011;7123;49.468;10.992;2024-02-15T02:25:17;4.33;;;3.93;;
14092;SDS011;7123;49.468;10.992;2024-02-15T02:27:44;3.93;;;3.50;;
14092;SDS011;7123;49.468;10.992;2024-02-15T02:30:13;7.03;;;3.93;;
14092;SDS011;7123;49.468;10.992;2024-02-15T02:32:41;3.63;;;3.40;;
14092;SDS011;7123;49.468;10.992;2024-02-15T02:35:08;4.23;;;3.83;;
14092;SDS011;7123;49.468;10.992;2024-02-15T02:37:39;4.40;;;4.00;;
14092;SDS011;7123;49.468;10.992;2024-02-15T02:40:06;3.70;;;3.40;;
14092;SDS011;7123;49.468;10.992;2024-02-15T02:42:36;4.60;;;3.90;;
14092;SDS011;7123;49.468;10.992;2024-02-15T02:45:28;3.83;;;3.53;;
14092;SDS011;7123;49.468;10.992;2024-02-15T02:47:54;4.47;;;3.40;;
14092;SDS011;7123;49.468;10.992;2024-02-15T02:50:21;3.57;;;3.07;;
14092;SDS011;7123;49.468;10.992;2024-02-15T02:52:49;3.70;;;3.40;;
14092;SDS011;7123;49.468;10.992;2024-02-15T02:55:16;4.47;;;3.23;;
14092;SDS011;7123;49.468;10.992;2024-02-15T02:57:43;4.17;;;3.37;;
14092;SDS011;7123;49.468;10.992;2024-02-15T03:00:11;3.93;;;3.50;;
14092;SDS011;7123;49.468;10.992;2024-02-15T03:02:42;4.67;;;3.50;;
14092;SDS011;7123;49.468;10.992;2024-02-15T03:05:09;3.87;;;3.43;;
14092;SDS011;7123;49.468;10.992;2024-02-15T03:07:38;5.63;;;4.00;;
14092;SDS011;7123;49.468;10.992;2024-02-15T03:10:08;4.53;;;4.13;;
14092;SDS011;7123;49.468;10.992;2024-02-15T03:12:36;3.90;;;3.10;;
14092;SDS011;7123;49.468;10.992;2024-02-15T03:15:03;4.67;;;3.37;;
14092;SDS011;7123;49.468;10.992;2024-02-15T03:17:34;4.10;;;3.67;;
14092;SDS011;7123;49.468;10.992;2024-02-15T03:20:00;5.17;;;3.70;;
14092;SDS011;7123;49.468;10.992;2024-02-15T03:22:27;4.20;;;3.80;;
14092;SDS011;7123;49.468;10.992;2024-02-15T03:24:55;4.73;;;4.30;;
14092;SDS011;7123;49.468;10.992;2024-02-15T03:27:22;4.63;;;3.77;;
14092;SDS011;7123;49.468;10.992;2024-02-15T03:29:49;4.10;;;3.70;;
14092;SDS011;7123;49.468;10.992;2024-02-15T03:32:17;4.27;;;3.83;;
14092;SDS011;7123;49.468;10.992;2024-02-15T03:34:44;4.53;;;3.83;;
14092;SDS011;7123;49.468;10.992;2024-02-15T03:37:11;6.43;;;3.90;;
14092;SDS011;7123;49.468;10.992;2024-02-15T03:39:38;4.53;;;3.90;;
14092;SDS011;7123;49.468;10.992;2024-02-15T03:42:05;4.10;;;3.70;;
14092;SDS011;7123;49.468;10.992;2024-02-15T03:44:32;4.47;;;3.70;;
14092;SDS011;7123;49.468;10.992;2024-02-15T03:46:59;4.10;;;3.80;;
14092;SDS011;7123;49.468;10.992;2024-02-15T03:49:25;4.17;;;3.73;;
14092;SDS011;7123;49.468;10.992;2024-02-15T03:51:53;4.23;;;3.83;;
14092;SDS011;7123;49.468;10.992;2024-02-15T03:54:21;5.77;;;4.03;;
14092;SDS011;7123;49.468;10.992;2024-02-15T03:56:49;5.50;;;4.47;;
14092;SDS011;7123;49.468;10.992;2024-02-15T03:59:21;4.47;;;4.03;;
14092;SDS011;7123;49.468;10.992;2024-02-15T04:01:53;5.57;;;4.00;;
14092;SDS011;7123;49.468;10.992;2024-02-15T04:04:20;4.83;;;4.00;;
14092;SDS011;7123;49.468;10.992;2024-02-15T04:06:48;6.60;;;4.03;;
14092;SDS011;7123;49.468;10.992;2024-02-15T04:09:15;6.93;;;4.30;;
14092;SDS011;7123;49.468;10.992;2024-02-15T04:11:49;4.57;;;4.17;;
14092;SDS011;7123;49.468;10.992;2024-02-15T04:14:19;4.30;;;3.90;;
14092;SDS011;7123;49.468;10.992;2024-02-15T04:16:46;6.60;;;4.40;;
14092;SDS011;7123;49.468;10.992;2024-02-15T04:19:13;4.77;;;4.27;;
14092;SDS011;7123;49.468;10.992;2024-02-15T04:21:39;5.93;;;4.00;;
14092;SDS011;7123;49.468;10.992;2024-02-15T04:24:06;5.13;;;4.23;;
14092;SDS011;7123;49.468;10.992;2024-02-15T04:26:33;4.90;;;4.50;;
14092;SDS011;7123;49.468;10.992;2024-02-15T04:29:00;4.30;;;3.90;;
14092;SDS011;7123;49.468;10.992;2024-02-15T04:31:27;4.10;;;3.70;;
14092;SDS011;7123;49.468;10.992;2024-02-15T04:33:54;4.13;;;3.60;;
14092;SDS011;7123;49.468;10.992;2024-02-15T04:36:22;4.37;;;3.90;;
14092;SDS011;7123;49.468;10.992;2024-02-15T04:38:52;5.77;;;3.67;;
14092;SDS011;7123;49.468;10.992;2024-02-15T04:41:19;4.90;;;4.33;;
14092;SDS011;7123;49.468;10.992;2024-02-15T04:43:49;4.83;;;3.47;;
14092;SDS011;7123;49.468;10.992;2024-02-15T04:46:16;3.97;;;3.53;;
14092;SDS011;7123;49.468;10.992;2024-02-15T04:48:43;3.97;;;3.67;;
14092;SDS011;7123;49.468;10.992;2024-02-15T04:51:10;5.70;;;4.13;;
14092;SDS011;7123;49.468;10.992;2024-02-15T04:53:37;3.97;;;3.67;;
14092;SDS011;7123;49.468;10.992;2024-02-15T04:56:05;4.40;;;4.00;;
14092;SDS011;7123;49.468;10.992;2024-02-15T04:58:40;3.77;;;3.30;;
14092;SDS011;7123;49.468;10.992;2024-02-15T05:01:14;4.80;;;3.93;;
14092;SDS011;7123;49.468;10.992;2024-02-15T05:03:45;4.00;;;3.60;;
14092;SDS011;7123;49.468;10.992;2024-02-15T05:06:12;4.10;;;3.70;;
14092;SDS011;7123;49.468;10.992;2024-02-15T05:08:40;3.70;;;3.30;;
14092;SDS011;7123;49.468;10.992;2024-02-15T05:11:10;3.70;;;3.40;;
14092;SDS011;7123;49.468;10.992;2024-02-15T05:13:48;5.00;;;3.40;;
14092;SDS011;7123;49.468;10.992;2024-02-15T05:16:16;3.50;;;3.20;;
14092;SDS011;7123;49.468;10.992;2024-02-15T05:18:43;4.63;;;3.67;;
14092;SDS011;7123;49.468;10.992;2024-02-15T05:21:11;4.83;;;3.77;;
14092;SDS011;7123;49.468;10.992;2024-02-15T05:23:39;4.83;;;3.30;;
14092;SDS011;7123;49.468;10.992;2024-02-15T05:26:06;5.33;;;3.57;;
14092;SDS011;7123;49.468;10.992;2024-02-15T05:28:34;4.23;;;3.80;;
14092;SDS011;7123;49.468;10.992;2024-02-15T05:33:38;4.60;;;3.33;;
14092;SDS011;7123;49.468;10.992;2024-02-15T05:36:11;3.83;;;3.53;;
14092;SDS011;7123;49.468;10.992;2024-02-15T05:38:38;5.37;;;3.60;;
14092;SDS011;7123;49.468;10.992;2024-02-15T05:41:05;4.90;;;3.77;;
14092;SDS011;7123;49.468;10.992;2024-02-15T05:43:35;4.03;;;3.53;;
14092;SDS011;7123;49.468;10.992;2024-02-15T05:46:03;5.63;;;3.23;;
14092;SDS011;7123;49.468;10.992;2024-02-15T05:48:30;3.50;;;3.20;;
14092;SDS011;7123;49.468;10.992;2024-02-15T05:50:57;6.73;;;4.33;;
14092;SDS011;7123;49.468;10.992;2024-02-15T05:53:25;6.60;;;4.23;;
14092;SDS011;7123;49.468;10.992;2024-02-15T05:55:52;4.03;;;3.70;;
14092;SDS011;7123;49.468;10.992;2024-02-15T05:58:20;3.67;;;3.37;;
14092;SDS011;7123;49.468;10.992;2024-02-15T06:00:47;6.27;;;3.40;;
14092;SDS011;7123;49.468;10.992;2024-02-15T06:03:18;6.23;;;3.83;;
14092;SDS011;7123;49.468;10.992;2024-02-15T06:05:49;4.17;;;3.60;;
14092;SDS011;7123;49.468;10.992;2024-02-15T06:08:16;4.97;;;3.47;;
14092;SDS011;7123;49.468;10.992;2024-02-15T06:10:43;4.20;;;3.70;;
14092;SDS011;7123;49.468;10.992;2024-02-15T06:13:10;4.77;;;3.80;;
14092;SDS011;7123;49.468;10.992;2024-02-15T06:15:37;5.03;;;3.87;;
14092;SDS011;7123;49.468;10.992;2024-02-15T06:18:04;4.90;;;3.57;;
14092;SDS011;7123;49.468;10.992;2024-02-15T06:20:35;6.50;;;4.20;;
14092;SDS011;7123;49.468;10.992;2024-02-15T06:23:02;5.43;;;3.97;;
14092;SDS011;7123;49.468;10.992;2024-02-15T06:25:37;3.87;;;3.57;;
14092;SDS011;7123;49.468;10.992;2024-02-15T06:28:03;4.73;;;3.97;;
14092;SDS011;7123;49.468;10.992;2024-02-15T06:30:39;6.63;;;4.30;;
14092;SDS011;7123;49.468;10.992;2024-02-15T06:33:25;5.83;;;4.23;;
14092;SDS011;7123;49.468;10.992;2024-02-15T06:36:11;4.63;;;4.20;;
14092;SDS011;7123;49.468;10.992;2024-02-15T06:38:56;5.63;;;3.57;;
14092;SDS011;7123;49.468;10.992;2024-02-15T06:41:41;4.00;;;3.50;;
14092;SDS011;7123;49.468;10.992;2024-02-15T06:44:08;5.17;;;3.90;;
14092;SDS011;7123;49.468;10.992;2024-02-15T06:46:35;4.37;;;3.97;;
14092;SDS011;7123;49.468;10.992;2024-02-15T06:49:02;6.33;;;3.27;;
14092;SDS011;7123;49.468;10.992;2024-02-15T06:51:31;6.67;;;3.83;;
14092;SDS011;7123;49.468;10.992;2024-02-15T06:53:58;4.37;;;3.97;;
14092;SDS011;7123;49.468;10.992;2024-02-15T06:56:25;4.47;;;3.70;;
14092;SDS011;7123;49.468;10.992;2024-02-15T06:58:53;5.10;;;3.53;;
14092;SDS011;7123;49.468;10.992;2024-02-15T07:01:21;3.73;;;3.20;;
14092;SDS011;7123;49.468;10.992;2024-02-15T07:03:50;4.67;;;3.60;;
14092;SDS011;7123;49.468;10.992;2024-02-15T07:06:18;5.73;;;3.83;;
14092;SDS011;7123;49.468;10.992;2024-02-15T07:08:45;4.00;;;3.60;;
14092;SDS011;7123;49.468;10.992;2024-02-15T07:11:13;5.23;;;3.67;;
14092;SDS011;7123;49.468;10.992;2024-02-15T07:13:40;5.93;;;3.60;;
14092;SDS011;7123;49.468;10.992;2024-02-15T07:16:08;3.73;;;3.43;;
14092;SDS011;7123;49.468;10.992;2024-02-15T07:18:35;6.07;;;4.13;;
14092;SDS011;7123;49.468;10.992;2024-02-15T07:21:02;6.90;;;3.93;;
14092;SDS011;7123;49.468;10.992;2024-02-15T07:23:34;5.67;;;4.40;;
14092;SDS011;7123;49.468;10.992;2024-02-15T07:26:04;4.93;;;3.63;;
14092;SDS011;7123;49.468;10.992;2024-02-15T07:28:30;4.17;;;3.77;;
14092;SDS011;7123;49.468;10.992;2024-02-15T07:30:57;6.00;;;3.70;;
14092;SDS011;7123;49.468;10.992;2024-02-15T07:33:24;6.37;;;4.00;;
14092;SDS011;7123;49.468;10.992;2024-02-15T07:35:51;4.63;;;3.50;;
14092;SDS011;7123;49.468;10.992;2024-02-15T07:38:19;4.10;;;3.60;;
14092;SDS011;7123;49.468;10.992;2024-02-15T07:40:49;5.17;;;4.67;;
14092;SDS011;7123;49.468;10.992;2024-02-15T07:43:16;5.13;;;4.60;;
14092;SDS011;7123;49.468;10.992;2024-02-15T07:45:43;19.23;;;12.80;;
14092;SDS011;7123;49.468;10.992;2024-02-15T07:48:09;13.83;;;7.47;;
14092;SDS011;7123;49.468;10.992;2024-02-15T07:50:36;23.03;;;13.27;;
14092;SDS011;7123;49.468;10.992;2024-02-15T07:53:04;11.73;;;7.10;;
14092;SDS011;7123;49.468;10.992;2024-02-15T07:55:34;23.67;;;12.53;;
14092;SDS011;7123;49.468;10.992;2024-02-15T07:58:01;20.13;;;11.70;;
14092;SDS011;7123;49.468;10.992;2024-02-15T08:00:28;18.53;;;11.97;;
14092;SDS011;7123;49.468;10.992;2024-02-15T08:02:56;10.90;;;7.13;;
14092;SDS011;7123;49.468;10.992;2024-02-15T08:05:26;10.63;;;7.63;;
14092;SDS011;7123;49.468;10.992;2024-02-15T08:07:53;10.57;;;7.30;;
14092;SDS011;7123;49.468;10.992;2024-02-15T08:10:24;8.57;;;5.57;;
14092;SDS011;7123;49.468;10.992;2024-02-15T08:12:51;8.63;;;5.20;;
14092;SDS011;7123;49.468;10.992;2024-02-15T08:15:18;13.27;;;5.37;;
14092;SDS011;7123;49.468;10.992;2024-02-15T08:17:45;6.03;;;4.73;;
14092;SDS011;7123;49.468;10.992;2024-02-15T08:20:13;5.73;;;4.90;;
14092;SDS011;7123;49.468;10.992;2024-02-15T08:22:41;5.70;;;4.50;;
14092;SDS011;7123;49.468;10.992;2024-02-15T08:25:10;5.23;;;4.40;;
14092;SDS011;7123;49.468;10.992;2024-02-15T08:27:41;9.93;;;5.20;;
14092;SDS011;7123;49.468;10.992;2024-02-15T08:30:11;5.57;;;4.30;;
14092;SDS011;7123;49.468;10.992;2024-02-15T08:32:39;5.00;;;4.50;;
14092;SDS011;7123;49.468;10.992;2024-02-15T08:35:09;6.73;;;4.80;;
14092;SDS011;7123;49.468;10.992;2024-02-15T08:37:36;4.93;;;4.43;;
14092;SDS011;7123;49.468;10.992;2024-02-15T08:40:04;6.03;;;4.67;;
14092;SDS011;7123;49.468;10.992;2024-02-15T08:42:38;5.10;;;4.23;;
14092;SDS011;7123;49.468;10.992;2024-02-15T08:45:05;7.20;;;4.30;;
14092;SDS011;7123;49.468;10.992;2024-02-15T08:47:39;5.53;;;4.30;;
14092;SDS011;7123;49.468;10.992;2024-02-15T08:50:07;5.47;;;4.20;;
14092;SDS011;7123;49.468;10.992;2024-02-15T08:52:38;8.43;;;3.97;;
14092;SDS011;7123;49.468;10.992;2024-02-15T08:55:06;5.20;;;4.03;;
14092;SDS011;7123;49.468;10.992;2024-02-15T08:57:35;5.63;;;4.10;;
14092;SDS011;7123;49.468;10.992;2024-02-15T09:00:06;5.23;;;4.07;;
14092;SDS011;7123;49.468;10.992;2024-02-15T09:02:43;6.97;;;4.20;;
14092;SDS011;7123;49.468;10.992;2024-02-15T09:05:10;6.00;;;3.80;;
14092;SDS011;7123;49.468;10.992;2024-02-15T09:07:44;5.53;;;4.00;;
14092;SDS011;7123;49.468;10.992;2024-02-15T09:10:14;5.17;;;4.07;;
14092;SDS011;7123;49.468;10.992;2024-02-15T09:12:43;4.30;;;3.33;;
14092;SDS011;7123;49.468;10.992;2024-02-15T09:15:13;4.67;;;4.00;;
14092;SDS011;7123;49.468;10.992;2024-02-15T09:17:41;5.57;;;4.40;;
14092;SDS011;7123;49.468;10.992;2024-02-15T09:20:10;6.47;;;3.60;;
14092;SDS011;7123;49.468;10.992;2024-02-15T09:22:42;5.63;;;3.40;;
14092;SDS011;7123;49.468;10.992;2024-02-15T09:25:16;6.70;;;3.70;;
14092;SDS011;7123;49.468;10.992;2024-02-15T09:27:44;5.40;;;3.57;;
14092;SDS011;7123;49.468;10.992;2024-02-15T09:30:12;6.17;;;3.23;;
14092;SDS011;7123;49.468;10.992;2024-02-15T09:32:39;5.70;;;3.60;;
14092;SDS011;7123;49.468;10.992;2024-02-15T09:35:06;6.43;;;3.80;;
14092;SDS011;7123;49.468;10.992;2024-02-15T09:37:35;5.73;;;3.50;;
14092;SDS011;7123;49.468;10.992;2024-02-15T09:40:08;5.43;;;3.47;;
14092;SDS011;7123;49.468;10.992;2024-02-15T09:42:38;5.30;;;3.43;;
14092;SDS011;7123;49.468;10.992;2024-02-15T09:45:06;3.87;;;3.00;;
14092;SDS011;7123;49.468;10.992;2024-02-15T09:47:39;7.77;;;3.60;;
14092;SDS011;7123;49.468;10.992;2024-02-15T09:50:09;5.03;;;3.40;;
14092;SDS011;7123;49.468;10.992;2024-02-15T09:52:43;3.50;;;3.13;;
14092;SDS011;7123;49.468;10.992;2024-02-15T09:55:22;6.70;;;3.60;;
14092;SDS011;7123;49.468;10.992;2024-02-15T09:57:50;4.67;;;3.50;;
14092;SDS011;7123;49.468;10.992;2024-02-15T10:00:17;4.07;;;3.50;;
14092;SDS011;7123;49.468;10.992;2024-02-15T10:02:47;5.43;;;3.13;;
14092;SDS011;7123;49.468;10.992;2024-02-15T10:05:17;3.97;;;3.50;;
14092;SDS011;7123;49.468;10.992;2024-02-15T10:07:44;4.07;;;3.67;;
14092;SDS011;7123;49.468;10.992;2024-02-15T10:10:45;5.50;;;3.80;;
14092;SDS011;7123;49.468;10.992;2024-02-15T10:13:04;7.80;;;4.10;;
14092;SDS011;7123;49.468;10.992;2024-02-15T10:18:05;7.73;;;3.57;;
14092;SDS011;7123;49.468;10.992;2024-02-15T10:20:40;3.93;;;3.53;;
14092;SDS011;7123;49.468;10.992;2024-02-15T10:23:11;4.67;;;3.20;;
14092;SDS011;7123;49.468;10.992;2024-02-15T10:25:43;3.90;;;3.20;;
14092;SDS011;7123;49.468;10.992;2024-02-15T10:28:11;4.10;;;3.00;;
14092;SDS011;7123;49.468;10.992;2024-02-15T10:30:42;3.40;;;3.10;;
14092;SDS011;7123;49.468;10.992;2024-02-15T10:33:25;3.70;;;3.30;;
14092;SDS011;7123;49.468;10.992;2024-02-15T10:36:06;4.53;;;3.10;;
14092;SDS011;7123;49.468;10.992;2024-02-15T10:38:34;4.73;;;3.60;;
14092;SDS011;7123;49.468;10.992;2024-02-15T10:41:02;5.77;;;3.80;;
14092;SDS011;7123;49.468;10.992;2024-02-15T10:43:33;3.67;;;3.27;;
14092;SDS011;7123;49.468;10.992;2024-02-15T10:46:00;4.57;;;3.07;;
14092;SDS011;7123;49.468;10.992;2024-02-15T10:48:27;4.70;;;3.30;;
14092;SDS011;7123;49.468;10.992;2024-02-15T10:50:56;3.73;;;3.37;;
14092;SDS011;7123;49.468;10.992;2024-02-15T10:53:29;5.50;;;3.23;;
14092;SDS011;7123;49.468;10.992;2024-02-15T10:58:31;5.63;;;3.43;;
14092;SDS011;7123;49.468;10.992;2024-02-15T11:01:05;5.33;;;2.87;;
14092;SDS011;7123;49.468;10.992;2024-02-15T11:03:36;3.90;;;2.90;;
14092;SDS011;7123;49.468;10.992;2024-02-15T11:06:13;6.10;;;2.93;;
14092;SDS011;7123;49.468;10.992;2024-02-15T11:08:41;5.23;;;2.87;;
14092;SDS011;7123;49.468;10.992;2024-02-15T11:11:11;8.10;;;2.80;;
14092;SDS011;7123;49.468;10.992;2024-02-15T11:13:40;4.63;;;2.80;;
14092;SDS011;7123;49.468;10.992;2024-02-15T11:16:08;3.00;;;2.60;;
14092;SDS011;7123;49.468;10.992;2024-02-15T11:18:42;5.37;;;2.37;;
14092;SDS011;7123;49.468;10.992;2024-02-15T11:21:18;2.60;;;2.40;;
14092;SDS011;7123;49.468;10.992;2024-02-15T11:24:30;3.40;;;2.67;;
14092;SDS011;7123;49.468;10.992;2024-02-15T11:27:04;5.83;;;2.50;;
14092;SDS011;7123;49.468;10.992;2024-02-15T11:35:14;4.07;;;2.77;;
14092;SDS011;7123;49.468;10.992;2024-02-15T11:37:49;3.20;;;2.50;;
14092;SDS011;7123;49.468;10.992;2024-02-15T11:40:20;4.00;;;2.97;;
14092;SDS011;7123;49.468;10.992;2024-02-15T11:45:26;4.10;;;2.77;;
14092;SDS011;7123;49.468;10.992;2024-02-15T11:47:59;2.70;;;2.50;;
14092;SDS011;7123;49.468;10.992;2024-02-15T11:50:27;2.47;;;2.03;;
14092;SDS011;7123;49.468;10.992;2024-02-15T11:53:01;4.87;;;2.90;;
14092;SDS011;7123;49.468;10.992;2024-02-15T11:55:38;5.80;;;2.53;;
14092;SDS011;7123;49.468;10.992;2024-02-15T11:58:09;8.30;;;2.90;;
14092;SDS011;7123;49.468;10.992;2024-02-15T12:00:37;2.93;;;2.27;;
14092;SDS011;7123;49.468;10.992;2024-02-15T12:03:24;3.20;;;2.20;;
14092;SDS011;7123;49.468;10.992;2024-02-15T12:06:26;2.57;;;2.37;;
14092;SDS011;7123;49.468;10.992;2024-02-15T12:09:13;2.13;;;1.97;;
14092;SDS011;7123;49.468;10.992;2024-02-15T12:12:02;2.07;;;1.97;;
14092;SDS011;7123;49.468;10.992;2024-02-15T12:14:48;4.63;;;2.30;;
14092;SDS011;7123;49.468;10.992;2024-02-15T12:17:34;3.43;;;2.33;;
14092;SDS011;7123;49.468;10.992;2024-02-15T12:20:19;2.80;;;1.87;;
14092;SDS011;7123;49.468;10.992;2024-02-15T12:22:51;1.93;;;1.60;;
14092;SDS011;7123;49.468;10.992;2024-02-15T12:25:19;2.97;;;1.70;;
14092;SDS011;7123;49.468;10.992;2024-02-15T12:27:54;4.00;;;1.47;;
14092;SDS011;7123;49.468;10.992;2024-02-15T12:30:22;3.40;;;1.90;;
14092;SDS011;7123;49.468;10.992;2024-02-15T12:32:49;4.10;;;1.97;;
14092;SDS011;7123;49.468;10.992;2024-02-15T12:35:17;2.30;;;1.23;;
14092;SDS011;7123;49.468;10.992;2024-02-15T12:37:46;4.90;;;1.70;;
14092;SDS011;7123;49.468;10.992;2024-02-15T12:40:14;3.47;;;1.80;;
14092;SDS011;7123;49.468;10.992;2024-02-15T12:42:44;2.33;;;1.20;;
14092;SDS011;7123;49.468;10.992;2024-02-15T12:45:20;1.13;;;1.03;;
14092;SDS011;7123;49.468;10.992;2024-02-15T12:47:51;1.00;;;0.90;;
14092;SDS011;7123;49.468;10.992;2024-02-15T12:50:22;1.13;;;0.83;;
14092;SDS011;7123;49.468;10.992;2024-02-15T12:52:51;2.60;;;0.87;;
14092;SDS011;7123;49.468;10.992;2024-02-15T12:55:20;6.77;;;0.80;;
14092;SDS011;7123;49.468;10.992;2024-02-15T12:57:48;5.13;;;1.40;;
14092;SDS011;7123;49.468;10.992;2024-02-15T13:00:23;3.93;;;1.20;;
14092;SDS011;7123;49.468;10.992;2024-02-15T13:02:55;1.57;;;1.13;;
14092;SDS011;7123;49.468;10.992;2024-02-15T13:05:24;4.37;;;1.33;;
14092;SDS011;7123;49.468;10.992;2024-02-15T13:07:53;1.67;;;1.17;;
14092;SDS011;7123;49.468;10.992;2024-02-15T13:10:31;1.80;;;1.50;;
14092;SDS011;7123;49.468;10.992;2024-02-15T13:12:58;4.30;;;1.53;;
14092;SDS011;7123;49.468;10.992;2024-02-15T13:15:25;1.00;;;1.00;;
14092;SDS011;7123;49.468;10.992;2024-02-15T13:17:59;3.43;;;1.30;;
14092;SDS011;7123;49.468;10.992;2024-02-15T13:20:26;4.17;;;1.90;;
14092;SDS011;7123;49.468;10.992;2024-02-15T13:22:58;4.73;;;1.77;;
14092;SDS011;7123;49.468;10.992;2024-02-15T13:25:28;1.57;;;1.33;;
14092;SDS011;7123;49.468;10.992;2024-02-15T13:27:58;4.13;;;1.20;;
14092;SDS011;7123;49.468;10.992;2024-02-15T13:30:25;1.23;;;1.00;;
14092;SDS011;7123;49.468;10.992;2024-02-15T13:32:54;4.23;;;1.20;;
14092;SDS011;7123;49.468;10.992;2024-02-15T13:35:21;3.60;;;1.30;;
14092;SDS011;7123;49.468;10.992;2024-02-15T13:37:50;2.60;;;1.50;;
14092;SDS011;7123;49.468;10.992;2024-02-15T13:40:20;5.07;;;1.30;;
14092;SDS011;7123;49.468;10.992;2024-02-15T13:42:51;2.13;;;1.10;;
14092;SDS011;7123;49.468;10.992;2024-02-15T13:45:27;3.97;;;1.13;;
14092;SDS011;7123;49.468;10.992;2024-02-15T13:48:03;1.87;;;0.90;;
14092;SDS011;7123;49.468;10.992;2024-02-15T13:50:34;3.23;;;1.53;;
14092;SDS011;7123;49.468;10.992;2024-02-15T13:53:02;4.37;;;1.20;;
14092;SDS011;7123;49.468;10.992;2024-02-15T13:55:30;3.03;;;1.13;;
14092;SDS011;7123;49.468;10.992;2024-02-15T13:57:57;2.57;;;1.27;;
14092;SDS011;7123;49.468;10.992;2024-02-15T14:00:24;1.47;;;1.13;;
14092;SDS011;7123;49.468;10.992;2024-02-15T14:03:03;1.90;;;1.10;;
14092;SDS011;7123;49.468;10.992;2024-02-15T14:05:32;1.27;;;1.00;;
14092;SDS011;7123;49.468;10.992;2024-02-15T14:07:59;3.30;;;1.13;;
14092;SDS011;7123;49.468;10.992;2024-02-15T14:10:28;1.67;;;0.90;;
14092;SDS011;7123;49.468;10.992;2024-02-15T14:12:57;1.67;;;1.10;;
14092;SDS011;7123;49.468;10.992;2024-02-15T14:15:35;1.40;;;1.10;;
14092;SDS011;7123;49.468;10.992;2024-02-15T14:18:06;3.23;;;1.30;;
14092;SDS011;7123;49.468;10.992;2024-02-15T14:20:37;0.87;;;0.87;;
14092;SDS011;7123;49.468;10.992;2024-02-15T14:23:04;2.93;;;1.43;;
14092;SDS011;7123;49.468;10.992;2024-02-15T14:25:39;1.30;;;0.93;;
14092;SDS011;7123;49.468;10.992;2024-02-15T14:28:06;2.97;;;1.10;;
14092;SDS011;7123;49.468;10.992;2024-02-15T14:30:36;4.90;;;1.33;;
14092;SDS011;7123;49.468;10.992;2024-02-15T14:33:22;2.60;;;1.40;;
14092;SDS011;7123;49.468;10.992;2024-02-15T14:35:59;1.87;;;1.30;;
14092;SDS011;7123;49.468;10.992;2024-02-15T14:38:27;4.03;;;1.07;;
14092;SDS011;7123;49.468;10.992;2024-02-15T14:40:54;2.67;;;1.33;;
14092;SDS011;7123;49.468;10.992;2024-02-15T14:43:25;1.87;;;1.00;;
14092;SDS011;7123;49.468;10.992;2024-02-15T14:45:53;3.73;;;1.10;;
14092;SDS011;7123;49.468;10.992;2024-02-15T14:48:22;1.17;;;0.90;;
14092;SDS011;7123;49.468;10.992;2024-02-15T14:50:50;2.83;;;1.17;;
14092;SDS011;7123;49.468;10.992;2024-02-15T14:53:19;3.33;;;1.30;;
14092;SDS011;7123;49.468;10.992;2024-02-15T14:55:46;3.17;;;1.10;;
14092;SDS011;7123;49.468;10.992;2024-02-15T14:58:13;2.07;;;1.10;;
14092;SDS011;7123;49.468;10.992;2024-02-15T15:00:43;2.73;;;1.10;;
14092;SDS011;7123;49.468;10.992;2024-02-15T15:03:14;2.03;;;1.20;;
14092;SDS011;7123;49.468;10.992;2024-02-15T15:05:43;5.67;;;1.33;;
14092;SDS011;7123;49.468;10.992;2024-02-15T15:08:30;2.33;;;1.47;;
14092;SDS011;7123;49.468;10.992;2024-02-15T15:11:16;1.93;;;0.93;;
14092;SDS011;7123;49.468;10.992;2024-02-15T15:14:01;1.53;;;1.00;;
14092;SDS011;7123;49.468;10.992;2024-02-15T15:16:30;6.00;;;1.33;;
14092;SDS011;7123;49.468;10.992;2024-02-15T15:18:57;4.23;;;1.10;;
14092;SDS011;7123;49.468;10.992;2024-02-15T15:21:24;3.60;;;0.93;;